Merriam, Kansas
Current Conditions -  °F | °C
As of 6:54 AM on Saturday 20 Dec 2014 (Local Time) from KMKC Reporting Station
Overcast Overcast  
Wind Chill: 27°   Ceiling: 1700
Heat Index: 35°   Visibility: 10mi
Dew Point: 30°   Wind: 10mph
Humidity: 82%   Direction: 190°S
Pressure: 30.19"   Gusts: NA
Location:  38.993°N, 94.6774°W
Report Text: KMKC 201254Z 19009KT 10SM OVC017 02/M01 A3019 RMK AO2 SLP230 T00171011
Loading
Personal Weather Stations






























Interactive Weather Map New forecast layout! Learn more

10-Day Weather Forecast

Advertisements
Track Severe Weather on mobile